createdAt,value
2022-08-19T00:02:08.755Z,15.23
2022-08-19T00:04:37.571Z,15.02
2022-08-19T00:07:06.029Z,14.32
2022-08-19T00:09:34.342Z,18.00
2022-08-19T00:12:01.898Z,14.82
2022-08-19T00:14:32.675Z,15.18
2022-08-19T00:17:00.447Z,14.98
2022-08-19T00:19:27.826Z,16.67
2022-08-19T00:21:55.444Z,21.55
2022-08-19T00:24:23.640Z,20.00
2022-08-19T00:26:51.395Z,21.08
2022-08-19T00:29:20.137Z,21.40
2022-08-19T00:31:47.679Z,18.02
2022-08-19T00:34:15.273Z,19.08
2022-08-19T00:36:42.786Z,21.23
2022-08-19T00:39:10.147Z,19.00
2022-08-19T00:41:38.722Z,19.58
2022-08-19T00:44:28.645Z,18.80
2022-08-19T00:46:58.084Z,19.50
2022-08-19T00:49:37.904Z,27.05
2022-08-19T00:52:09.856Z,19.48
2022-08-19T00:54:37.921Z,18.08
2022-08-19T00:57:07.731Z,17.65
2022-08-19T01:00:01.091Z,19.25
2022-08-19T01:02:24.354Z,16.55
2022-08-19T01:04:51.808Z,24.55
2022-08-19T01:07:19.638Z,19.27
2022-08-19T01:09:48.174Z,21.25
2022-08-19T01:12:15.501Z,17.45
2022-08-19T01:14:42.842Z,25.55
2022-08-19T01:17:10.570Z,19.20
2022-08-19T01:19:43.656Z,23.45
2022-08-19T01:22:20.058Z,20.88
2022-08-19T01:24:52.781Z,20.90
2022-08-19T01:27:22.562Z,20.92
2022-08-19T01:29:49.907Z,24.00
2022-08-19T01:32:32.351Z,19.20
2022-08-19T01:35:04.534Z,23.50
2022-08-19T01:40:10.816Z,20.75
2022-08-19T01:42:38.937Z,24.70
2022-08-19T01:45:07.222Z,19.38
2022-08-19T01:47:36.591Z,23.98
2022-08-19T01:50:06.022Z,21.20
2022-08-19T01:52:36.760Z,20.52
2022-08-19T01:55:05.511Z,22.92
2022-08-19T01:57:32.954Z,24.60
2022-08-19T02:00:00.804Z,20.60
2022-08-19T02:02:28.376Z,24.35
2022-08-19T02:04:55.634Z,21.60
2022-08-19T02:07:22.905Z,23.85
2022-08-19T02:09:50.186Z,24.20
2022-08-19T02:12:17.667Z,23.13
2022-08-19T02:14:45.125Z,22.52
2022-08-19T02:17:12.481Z,23.02
2022-08-19T02:19:41.101Z,23.92
2022-08-19T02:22:08.427Z,17.58
2022-08-19T02:24:35.761Z,21.98
2022-08-19T02:27:03.085Z,18.73
2022-08-19T02:29:30.623Z,22.75
2022-08-19T02:31:57.985Z,17.42
2022-08-19T02:34:25.979Z,19.05
2022-08-19T02:36:53.308Z,19.10
2022-08-19T02:39:20.573Z,18.25
2022-08-19T02:41:47.995Z,19.17
2022-08-19T02:44:28.766Z,18.58
2022-08-19T02:46:58.149Z,22.38
2022-08-19T02:49:25.499Z,20.05
2022-08-19T02:51:52.820Z,16.27
2022-08-19T02:54:20.175Z,17.73
2022-08-19T02:56:47.618Z,16.40
2022-08-19T02:59:14.906Z,17.77
2022-08-19T03:01:43.023Z,16.88
2022-08-19T03:04:11.805Z,16.75
2022-08-19T03:06:42.249Z,17.70
2022-08-19T03:09:09.765Z,17.48
2022-08-19T03:11:37.674Z,18.73
2022-08-19T03:14:05.373Z,16.58
2022-08-19T03:16:34.094Z,14.05
2022-08-19T03:19:01.872Z,20.17
2022-08-19T03:21:32.030Z,17.90
2022-08-19T03:24:01.464Z,18.23
2022-08-19T03:26:29.004Z,15.68
2022-08-19T03:28:58.624Z,16.73
2022-08-19T03:31:44.191Z,17.40
2022-08-19T03:34:16.004Z,16.60
2022-08-19T03:36:43.306Z,17.52
2022-08-19T03:39:10.623Z,19.05
2022-08-19T03:41:44.656Z,17.00
2022-08-19T03:44:21.841Z,16.38
2022-08-19T03:46:53.895Z,16.35
2022-08-19T03:49:21.465Z,17.25
2022-08-19T03:51:55.101Z,15.45
2022-08-19T03:54:24.005Z,16.05
2022-08-19T03:56:52.722Z,14.82
2022-08-19T03:59:31.631Z,17.60
2022-08-19T04:02:00.930Z,17.52
2022-08-19T04:04:29.238Z,15.45
2022-08-19T04:06:57.221Z,16.23
2022-08-19T04:09:24.635Z,14.98
2022-08-19T04:11:54.886Z,17.45
2022-08-19T04:14:25.061Z,13.73
2022-08-19T04:16:52.557Z,13.70
2022-08-19T04:19:20.004Z,13.60
2022-08-19T04:21:50.908Z,16.30
2022-08-19T04:24:18.427Z,15.25
2022-08-19T04:26:45.768Z,15.07
2022-08-19T04:29:19.604Z,14.23
2022-08-19T04:31:46.956Z,16.58
2022-08-19T04:34:15.384Z,22.55
2022-08-19T04:36:43.475Z,20.13
2022-08-19T04:39:12.866Z,21.65
2022-08-19T04:41:59.505Z,20.15
2022-08-19T04:44:26.832Z,20.38
2022-08-19T04:46:54.254Z,19.80
2022-08-19T04:49:23.276Z,17.02
2022-08-19T04:51:51.432Z,20.75
2022-08-19T04:54:37.168Z,19.10
2022-08-19T04:57:10.953Z,21.05
2022-08-19T04:59:38.932Z,17.85
2022-08-19T05:02:06.794Z,21.25
2022-08-19T05:04:34.682Z,21.33
2022-08-19T05:07:02.483Z,20.77
2022-08-19T05:09:55.464Z,20.40
2022-08-19T05:12:18.367Z,23.45
2022-08-19T05:14:50.393Z,22.77
2022-08-19T05:17:27.579Z,26.38
2022-08-19T05:20:14.695Z,23.75
2022-08-19T05:22:42.951Z,29.52
2022-08-19T05:25:13.865Z,24.23
2022-08-19T05:27:42.276Z,33.75
2022-08-19T05:30:10.592Z,25.13
2022-08-19T05:32:38.656Z,26.88
2022-08-19T05:35:06.518Z,30.85
2022-08-19T05:37:34.115Z,30.73
2022-08-19T05:40:01.666Z,36.60
2022-08-19T05:42:29.347Z,39.28
2022-08-19T05:44:57.701Z,37.97
2022-08-19T05:47:25.005Z,37.75
2022-08-19T05:49:52.490Z,40.28
2022-08-19T05:52:25.751Z,41.85
2022-08-19T05:54:56.141Z,33.13
2022-08-19T05:57:24.860Z,32.73
2022-08-19T05:59:58.056Z,33.70
2022-08-19T06:02:27.541Z,27.27
2022-08-19T06:04:54.953Z,25.55
2022-08-19T06:07:22.276Z,20.35
2022-08-19T06:10:00.386Z,22.42
2022-08-19T06:12:29.823Z,21.75
2022-08-19T06:15:01.576Z,24.27
2022-08-19T06:17:31.746Z,19.35
2022-08-19T06:19:59.975Z,17.95
2022-08-19T06:22:27.768Z,19.20
2022-08-19T06:24:55.659Z,19.85
2022-08-19T06:27:22.951Z,16.98
2022-08-19T06:29:50.483Z,17.85
2022-08-19T06:32:18.706Z,22.70
2022-08-19T06:34:46.003Z,21.95
2022-08-19T06:37:13.373Z,19.13
2022-08-19T06:39:41.828Z,20.92
2022-08-19T06:42:12.387Z,18.67
2022-08-19T06:44:43.173Z,19.33
2022-08-19T06:47:14.752Z,18.17
2022-08-19T06:49:50.326Z,17.25
2022-08-19T06:52:17.800Z,17.50
2022-08-19T06:54:55.783Z,26.13
2022-08-19T06:57:24.949Z,14.77
2022-08-19T06:59:52.571Z,16.85
2022-08-19T07:02:20.076Z,17.73
2022-08-19T07:04:47.412Z,16.73
2022-08-19T07:07:19.977Z,18.45
2022-08-19T07:09:58.475Z,15.52
2022-08-19T07:12:30.640Z,12.02
2022-08-19T07:14:58.990Z,13.73
2022-08-19T07:17:26.967Z,13.68
2022-08-19T07:19:54.867Z,14.88
2022-08-19T07:22:23.772Z,15.77
2022-08-19T07:24:54.858Z,17.40
2022-08-19T07:27:24.727Z,14.45
2022-08-19T07:29:55.749Z,13.68
2022-08-19T07:32:24.474Z,15.68
2022-08-19T07:34:53.559Z,15.57
2022-08-19T07:37:21.030Z,13.55
2022-08-19T07:39:48.580Z,13.35
2022-08-19T07:42:16.184Z,11.38
2022-08-19T07:44:50.344Z,17.25
2022-08-19T07:47:48.734Z,11.70
2022-08-19T07:50:08.287Z,15.48
2022-08-19T07:52:39.192Z,10.80
2022-08-19T07:55:07.751Z,13.52
2022-08-19T07:57:55.553Z,12.30
2022-08-19T08:00:24.238Z,14.43
2022-08-19T08:02:55.764Z,12.82
2022-08-19T08:05:43.961Z,9.60
2022-08-19T08:08:27.613Z,12.88
2022-08-19T08:10:56.900Z,10.30
2022-08-19T08:13:25.519Z,10.38
2022-08-19T08:15:55.901Z,12.32
2022-08-19T08:18:27.692Z,11.05
2022-08-19T08:20:56.381Z,7.82
2022-08-19T08:23:26.002Z,8.00
2022-08-19T08:25:55.633Z,7.60
2022-08-19T08:28:24.119Z,8.88
2022-08-19T08:30:51.422Z,10.32
2022-08-19T08:33:33.322Z,7.78
2022-08-19T08:36:05.255Z,7.65
2022-08-19T08:38:38.927Z,12.05
2022-08-19T08:41:20.085Z,8.38
2022-08-19T08:43:49.445Z,9.30
2022-08-19T08:46:31.024Z,8.10
2022-08-19T08:49:02.794Z,8.38
2022-08-19T08:51:38.277Z,11.75
2022-08-19T08:54:07.715Z,8.73
2022-08-19T08:56:39.986Z,8.70
2022-08-19T08:59:11.367Z,8.20
2022-08-19T09:01:39.440Z,9.02
2022-08-19T09:04:07.886Z,10.50
2022-08-19T09:07:18.643Z,9.73
2022-08-19T09:10:15.753Z,9.48
2022-08-19T09:13:09.390Z,10.23
2022-08-19T09:15:45.841Z,9.10
2022-08-19T09:18:19.390Z,11.05
2022-08-19T09:20:48.499Z,9.35
2022-08-19T09:23:16.214Z,9.88
2022-08-19T09:25:43.602Z,8.65
2022-08-19T09:28:22.059Z,9.65
2022-08-19T09:30:50.172Z,7.75
2022-08-19T09:33:20.789Z,11.18
2022-08-19T09:35:50.175Z,8.63
2022-08-19T09:38:22.254Z,8.15
2022-08-19T09:40:50.531Z,9.55
2022-08-19T09:43:33.096Z,9.15
2022-08-19T09:46:02.228Z,8.02
2022-08-19T09:48:29.740Z,8.52
2022-08-19T09:51:04.288Z,7.68
2022-08-19T09:53:32.662Z,7.10
2022-08-19T09:56:04.206Z,11.70
2022-08-19T10:00:59.759Z,7.15
2022-08-19T10:03:30.092Z,6.57
2022-08-19T10:05:58.981Z,6.35
2022-08-19T10:08:29.610Z,6.65
2022-08-19T10:10:57.092Z,5.95
2022-08-19T10:13:27.861Z,11.60
2022-08-19T10:15:56.943Z,6.25
2022-08-19T10:18:25.442Z,11.13
2022-08-19T10:21:23.826Z,10.70
2022-08-19T10:23:54.189Z,7.03
2022-08-19T10:26:23.849Z,7.95
2022-08-19T10:28:54.117Z,6.57
2022-08-19T10:32:00.677Z,6.20
2022-08-19T10:34:22.056Z,5.78
2022-08-19T10:36:56.433Z,6.55
2022-08-19T10:39:30.704Z,6.85
2022-08-19T10:44:31.981Z,7.82
2022-08-19T10:47:00.204Z,5.68
2022-08-19T10:49:28.148Z,7.50
2022-08-19T10:52:18.945Z,6.60
2022-08-19T10:55:08.286Z,8.27
2022-08-19T10:57:59.290Z,8.70
2022-08-19T11:00:24.157Z,6.35
2022-08-19T11:02:52.049Z,5.95
2022-08-19T11:05:19.669Z,11.88
2022-08-19T11:07:47.160Z,9.50
2022-08-19T11:10:20.872Z,10.45
2022-08-19T11:12:49.285Z,6.97
2022-08-19T11:15:16.709Z,6.28
2022-08-19T11:17:44.798Z,6.38
2022-08-19T11:20:13.222Z,6.18
2022-08-19T11:22:41.802Z,8.27
2022-08-19T11:25:10.405Z,7.47
2022-08-19T11:27:43.622Z,6.85
2022-08-19T11:30:13.219Z,9.10
2022-08-19T11:32:45.903Z,11.30
2022-08-19T11:35:17.106Z,9.25
2022-08-19T11:37:44.538Z,10.77
2022-08-19T11:40:12.962Z,9.48
2022-08-19T11:42:58.502Z,10.05
2022-08-19T11:45:27.063Z,7.80
2022-08-19T11:47:54.583Z,8.05
2022-08-19T11:50:22.026Z,7.65
2022-08-19T11:52:50.681Z,8.70
2022-08-19T11:55:17.974Z,10.27
2022-08-19T11:57:45.384Z,8.90
2022-08-19T12:00:14.160Z,6.38
2022-08-19T12:02:41.965Z,6.97
2022-08-19T12:05:12.614Z,11.50
2022-08-19T12:07:42.469Z,6.00
2022-08-19T12:10:10.807Z,6.55
2022-08-19T12:12:43.628Z,7.65
2022-08-19T12:15:11.900Z,12.70
2022-08-19T12:17:39.427Z,9.32
2022-08-19T12:20:08.039Z,11.10
2022-08-19T12:22:36.824Z,10.10
2022-08-19T12:25:05.142Z,13.43
2022-08-19T12:27:40.192Z,11.52
2022-08-19T12:30:09.421Z,14.52
2022-08-19T12:32:37.032Z,10.65
2022-08-19T12:35:05.080Z,10.68
2022-08-19T12:37:33.311Z,14.38
2022-08-19T12:40:00.702Z,10.68
2022-08-19T12:42:28.183Z,14.48
2022-08-19T12:44:55.831Z,12.05
2022-08-19T12:47:23.709Z,12.10
2022-08-19T12:49:55.513Z,13.80
2022-08-19T12:52:24.865Z,9.23
2022-08-19T12:54:54.644Z,12.63
2022-08-19T12:57:32.659Z,10.07
2022-08-19T13:00:13.087Z,11.68
2022-08-19T13:02:41.723Z,10.63
2022-08-19T13:05:09.920Z,11.23
2022-08-19T13:07:39.663Z,11.15
2022-08-19T13:10:08.360Z,8.80
2022-08-19T13:12:36.123Z,10.32
2022-08-19T13:15:03.789Z,9.77
2022-08-19T13:17:39.573Z,10.02
2022-08-19T13:20:11.343Z,9.15
2022-08-19T13:22:39.361Z,10.38
2022-08-19T13:25:07.637Z,9.45
2022-08-19T13:27:36.456Z,8.65
2022-08-19T13:30:22.789Z,10.52
2022-08-19T13:33:08.691Z,15.00
2022-08-19T13:35:36.030Z,14.00
2022-08-19T13:38:05.783Z,8.30
2022-08-19T13:40:38.085Z,16.85
2022-08-19T13:43:13.711Z,8.65
2022-08-19T13:45:52.327Z,10.98
2022-08-19T13:48:19.763Z,12.32
2022-08-19T13:50:48.354Z,38.97
2022-08-19T13:53:15.894Z,48.63
2022-08-19T13:55:44.079Z,20.92
2022-08-19T13:58:11.735Z,20.45
2022-08-19T14:00:46.031Z,9.82
2022-08-19T14:03:13.407Z,15.68
2022-08-19T14:05:42.256Z,13.00
2022-08-19T14:08:10.305Z,8.07
2022-08-19T14:10:37.827Z,13.85
2022-08-19T14:13:05.218Z,13.27
2022-08-19T14:15:32.810Z,12.30
2022-08-19T14:18:00.493Z,20.13
2022-08-19T14:20:27.982Z,9.77
2022-08-19T14:22:55.753Z,5.30
2022-08-19T14:25:26.300Z,10.60
2022-08-19T14:27:53.866Z,14.80
2022-08-19T14:30:23.759Z,7.28
2022-08-19T14:32:51.048Z,4.85
2022-08-19T14:35:19.083Z,7.45
2022-08-19T14:37:46.459Z,36.20
2022-08-19T14:40:15.241Z,13.90
2022-08-19T14:42:42.983Z,9.98
2022-08-19T14:45:11.085Z,7.50
2022-08-19T14:47:39.762Z,5.88
2022-08-19T14:50:11.354Z,7.35
2022-08-19T14:52:47.424Z,10.55
2022-08-19T14:55:15.595Z,11.35
2022-08-19T14:57:43.286Z,6.55
2022-08-19T15:00:14.164Z,5.00
2022-08-19T15:02:42.632Z,5.53
2022-08-19T15:05:10.132Z,5.70
2022-08-19T15:07:39.794Z,7.15
2022-08-19T15:10:08.320Z,5.40
2022-08-19T15:12:36.009Z,7.03
2022-08-19T15:15:03.574Z,4.85
2022-08-19T15:17:45.164Z,5.38
2022-08-19T15:20:16.667Z,4.20
2022-08-19T15:22:44.038Z,6.90
2022-08-19T15:25:12.375Z,5.13
2022-08-19T15:27:40.659Z,3.67
2022-08-19T15:30:09.362Z,3.95
2022-08-19T15:32:37.466Z,5.00
2022-08-19T15:35:06.086Z,4.28
2022-08-19T15:37:36.954Z,3.83
2022-08-19T15:40:06.421Z,3.97
2022-08-19T15:42:34.060Z,3.85
2022-08-19T15:45:02.524Z,9.38
2022-08-19T15:47:34.576Z,3.53
2022-08-19T15:50:11.536Z,5.22
2022-08-19T15:53:00.969Z,6.13
2022-08-19T15:55:33.582Z,5.47
2022-08-19T15:58:29.836Z,7.25
2022-08-19T16:01:21.322Z,9.40
2022-08-19T16:04:10.994Z,10.25
2022-08-19T16:06:52.963Z,8.48
2022-08-19T16:09:26.421Z,9.82
2022-08-19T16:12:02.768Z,10.10
2022-08-19T16:14:35.314Z,7.70
2022-08-19T16:17:02.759Z,6.65
2022-08-19T16:19:31.062Z,8.85
2022-08-19T16:21:58.315Z,9.32
2022-08-19T16:24:26.983Z,7.20
2022-08-19T16:26:54.596Z,9.93
2022-08-19T16:29:34.058Z,7.38
2022-08-19T16:32:10.047Z,8.85
2022-08-19T16:34:38.866Z,7.65
2022-08-19T16:37:06.424Z,7.22
2022-08-19T16:39:34.067Z,8.38
2022-08-19T16:42:01.489Z,6.93
2022-08-19T16:44:29.581Z,8.75
2022-08-19T16:46:59.679Z,7.10
2022-08-19T16:49:52.386Z,8.23
2022-08-19T16:52:16.233Z,8.77
2022-08-19T16:54:44.638Z,8.73
2022-08-19T16:57:12.434Z,8.23
2022-08-19T16:59:48.228Z,9.65
2022-08-19T17:02:22.091Z,6.97
2022-08-19T17:04:57.810Z,7.30
2022-08-19T17:07:29.444Z,9.95
2022-08-19T17:10:01.033Z,8.35
2022-08-19T17:12:31.783Z,8.60
2022-08-19T17:15:01.011Z,9.93
2022-08-19T17:17:29.804Z,7.03
2022-08-19T17:20:00.701Z,7.65
2022-08-19T17:22:28.103Z,9.15
2022-08-19T17:24:56.259Z,14.73
2022-08-19T17:27:31.374Z,11.40
2022-08-19T17:30:02.485Z,8.65
2022-08-19T17:32:33.266Z,13.07
2022-08-19T17:35:00.785Z,9.87
2022-08-19T17:37:28.281Z,9.43
2022-08-19T17:39:55.710Z,9.52
2022-08-19T17:42:23.009Z,14.02
2022-08-19T17:44:50.794Z,10.48
2022-08-19T17:47:19.395Z,12.75
2022-08-19T17:49:46.836Z,10.15
2022-08-19T17:52:14.215Z,11.80
2022-08-19T17:54:41.565Z,11.82
2022-08-19T17:57:09.622Z,12.20
2022-08-19T17:59:39.791Z,20.50
2022-08-19T18:02:07.830Z,13.18
2022-08-19T18:07:06.317Z,17.25
2022-08-19T18:09:41.807Z,18.67
2022-08-19T18:12:14.045Z,19.30
2022-08-19T18:14:41.639Z,17.67
2022-08-19T18:17:11.618Z,21.15
2022-08-19T18:19:42.695Z,20.95
2022-08-19T18:22:12.743Z,19.00
2022-08-19T18:24:41.082Z,17.60
2022-08-19T18:27:08.786Z,24.13
2022-08-19T18:29:38.134Z,20.15
2022-08-19T18:32:06.937Z,19.27
2022-08-19T18:34:36.461Z,24.73
2022-08-19T18:37:04.149Z,17.83
2022-08-19T18:39:50.189Z,18.48
2022-08-19T18:42:36.593Z,25.45
2022-08-19T18:45:23.377Z,19.70
2022-08-19T18:48:18.430Z,22.15
2022-08-19T18:50:59.113Z,24.05
2022-08-19T18:53:28.141Z,23.40
2022-08-19T18:55:55.884Z,23.83
2022-08-19T18:58:34.833Z,20.75
2022-08-19T19:01:11.320Z,20.25
2022-08-19T19:03:42.576Z,15.30
2022-08-19T19:08:38.979Z,16.80
2022-08-19T19:11:08.661Z,22.08
2022-08-19T19:13:37.059Z,16.45
2022-08-19T19:16:04.575Z,14.15
2022-08-19T19:18:33.388Z,14.07
2022-08-19T19:21:00.686Z,17.52
2022-08-19T19:23:28.557Z,13.55
2022-08-19T19:25:55.885Z,14.00
2022-08-19T19:28:28.744Z,12.73
2022-08-19T19:30:59.777Z,12.95
2022-08-19T19:33:27.577Z,12.70
2022-08-19T19:35:55.149Z,11.57
2022-08-19T19:38:22.498Z,15.20
2022-08-19T19:40:49.744Z,14.10
2022-08-19T19:43:18.442Z,11.07
2022-08-19T19:45:46.531Z,13.07
2022-08-19T19:48:14.965Z,10.75
2022-08-19T19:50:46.670Z,11.45
2022-08-19T19:53:23.395Z,12.43
2022-08-19T19:55:58.631Z,10.75
2022-08-19T19:58:28.733Z,10.68
2022-08-19T20:00:58.081Z,14.25
2022-08-19T20:03:26.578Z,14.15
2022-08-19T20:05:54.907Z,11.50
2022-08-19T20:08:40.793Z,15.55
2022-08-19T20:11:08.187Z,16.65
2022-08-19T20:13:35.567Z,19.27
2022-08-19T20:16:03.882Z,15.75
2022-08-19T20:18:31.677Z,17.10
2022-08-19T20:21:00.447Z,16.15
2022-08-19T20:23:27.771Z,13.65
2022-08-19T20:25:55.063Z,14.77
2022-08-19T20:28:22.727Z,11.57
2022-08-19T20:30:50.577Z,13.20
2022-08-19T20:33:18.027Z,12.20
2022-08-19T20:35:46.236Z,11.43
2022-08-19T20:38:13.653Z,11.50
2022-08-19T20:40:41.309Z,17.17
2022-08-19T20:43:12.958Z,11.70
2022-08-19T20:45:40.368Z,10.95
2022-08-19T20:48:08.144Z,11.75
2022-08-19T20:50:35.994Z,13.60
2022-08-19T20:53:14.851Z,12.43
2022-08-19T20:55:46.731Z,10.60
2022-08-19T20:58:14.037Z,11.13
2022-08-19T21:00:43.861Z,10.98
2022-08-19T21:03:12.377Z,12.85
2022-08-19T21:05:40.131Z,13.95
2022-08-19T21:08:09.108Z,14.80
2022-08-19T21:10:40.493Z,13.68
2022-08-19T21:13:09.803Z,17.08
2022-08-19T21:15:40.681Z,15.73
2022-08-19T21:18:08.355Z,13.90
2022-08-19T21:20:35.727Z,13.73
2022-08-19T21:23:04.703Z,13.02
2022-08-19T21:25:32.186Z,19.95
2022-08-19T21:27:59.607Z,9.63
2022-08-19T21:30:27.246Z,10.00
2022-08-19T21:32:55.036Z,9.40
2022-08-19T21:35:23.704Z,9.90
2022-08-19T21:37:51.166Z,9.38
2022-08-19T21:40:18.753Z,8.18
2022-08-19T21:42:46.175Z,8.85
2022-08-19T21:45:14.151Z,6.72
2022-08-19T21:47:41.409Z,7.00
2022-08-19T21:50:09.672Z,5.88
2022-08-19T21:52:36.946Z,6.47
2022-08-19T21:55:05.272Z,8.20
2022-08-19T21:57:33.031Z,6.15
2022-08-19T22:00:01.488Z,5.65
2022-08-19T22:02:29.087Z,6.13
2022-08-19T22:04:56.382Z,5.07
2022-08-19T22:07:23.904Z,5.63
2022-08-19T22:09:51.673Z,5.97
2022-08-19T22:12:28.209Z,6.45
2022-08-19T22:14:55.671Z,6.20
2022-08-19T22:17:23.088Z,5.25
2022-08-19T22:19:52.450Z,7.75
2022-08-19T22:22:24.316Z,7.68
2022-08-19T22:24:52.675Z,5.72
2022-08-19T22:27:20.274Z,10.00
2022-08-19T22:29:47.775Z,6.13
2022-08-19T22:32:27.973Z,6.50
2022-08-19T22:35:00.596Z,8.93
2022-08-19T22:39:56.245Z,7.53
2022-08-19T22:42:24.810Z,7.55
2022-08-19T22:44:57.314Z,6.63
2022-08-19T22:47:26.010Z,6.90
2022-08-19T22:49:57.633Z,7.15
2022-08-19T22:52:25.546Z,7.78
2022-08-19T22:54:54.981Z,11.18
2022-08-19T22:57:22.629Z,7.68
2022-08-19T22:59:51.261Z,11.00
2022-08-19T23:02:23.537Z,8.38
2022-08-19T23:04:51.294Z,7.88
2022-08-19T23:07:19.074Z,8.38
2022-08-19T23:09:51.334Z,8.30
2022-08-19T23:12:30.620Z,8.18
2022-08-19T23:15:06.572Z,8.65
2022-08-19T23:17:35.337Z,9.93
2022-08-19T23:20:03.726Z,8.30
2022-08-19T23:22:31.402Z,9.40
2022-08-19T23:25:06.247Z,9.45
2022-08-19T23:27:52.400Z,7.88
2022-08-19T23:30:28.608Z,10.90
2022-08-19T23:33:12.690Z,8.95
2022-08-19T23:35:41.156Z,7.55
2022-08-19T23:38:08.893Z,8.27
2022-08-19T23:40:36.784Z,8.60
2022-08-19T23:43:07.898Z,7.28
2022-08-19T23:45:40.141Z,9.35
2022-08-19T23:48:08.504Z,9.10
2022-08-19T23:50:37.509Z,8.32
2022-08-19T23:53:04.894Z,13.85
2022-08-19T23:55:35.370Z,11.77
2022-08-19T23:58:02.865Z,10.52
